sensor_id;sensor_type;location;lat;lon;timestamp;pressure;altitude;pressure_sealevel;temperature
11849;BMP180;5983;49.966;8.052;2022-12-05T00:01:53;100362.00;;;3.50
11849;BMP180;5983;49.966;8.052;2022-12-05T00:04:20;100362.00;;;3.50
11849;BMP180;5983;49.966;8.052;2022-12-05T00:06:49;100370.00;;;3.50
11849;BMP180;5983;49.966;8.052;2022-12-05T00:09:16;100369.00;;;3.50
11849;BMP180;5983;49.966;8.052;2022-12-05T00:11:44;100371.00;;;3.50
11849;BMP180;5983;49.966;8.052;2022-12-05T00:14:12;100362.00;;;3.50
11849;BMP180;5983;49.966;8.052;2022-12-05T00:16:42;100383.00;;;3.50
11849;BMP180;5983;49.966;8.052;2022-12-05T00:19:12;100374.00;;;3.50
11849;BMP180;5983;49.966;8.052;2022-12-05T00:21:40;100384.00;;;3.50
11849;BMP180;5983;49.966;8.052;2022-12-05T00:24:13;100387.00;;;3.50
11849;BMP180;5983;49.966;8.052;2022-12-05T00:26:41;100383.00;;;3.50
11849;BMP180;5983;49.966;8.052;2022-12-05T00:29:08;100388.00;;;3.50
11849;BMP180;5983;49.966;8.052;2022-12-05T00:31:35;100393.00;;;3.50
11849;BMP180;5983;49.966;8.052;2022-12-05T00:34:02;100393.00;;;3.50
11849;BMP180;5983;49.966;8.052;2022-12-05T00:36:33;100386.00;;;3.50
11849;BMP180;5983;49.966;8.052;2022-12-05T00:39:05;100405.00;;;3.50
11849;BMP180;5983;49.966;8.052;2022-12-05T00:41:33;100400.00;;;3.50
11849;BMP180;5983;49.966;8.052;2022-12-05T00:44:02;100403.00;;;3.50
11849;BMP180;5983;49.966;8.052;2022-12-05T00:46:31;100396.00;;;3.50
11849;BMP180;5983;49.966;8.052;2022-12-05T00:49:01;100399.00;;;3.40
11849;BMP180;5983;49.966;8.052;2022-12-05T00:51:31;100402.00;;;3.40
11849;BMP180;5983;49.966;8.052;2022-12-05T00:54:00;100407.00;;;3.40
11849;BMP180;5983;49.966;8.052;2022-12-05T00:56:30;100400.00;;;3.50
11849;BMP180;5983;49.966;8.052;2022-12-05T00:59:00;100405.00;;;3.40
11849;BMP180;5983;49.966;8.052;2022-12-05T01:01:31;100409.00;;;3.40
11849;BMP180;5983;49.966;8.052;2022-12-05T01:04:01;100416.00;;;3.40
11849;BMP180;5983;49.966;8.052;2022-12-05T01:06:29;100420.00;;;3.50
11849;BMP180;5983;49.966;8.052;2022-12-05T01:08:56;100416.00;;;3.50
11849;BMP180;5983;49.966;8.052;2022-12-05T01:11:25;100420.00;;;3.50
11849;BMP180;5983;49.966;8.052;2022-12-05T01:13:53;100422.00;;;3.40
11849;BMP180;5983;49.966;8.052;2022-12-05T01:16:25;100422.00;;;3.50
11849;BMP180;5983;49.966;8.052;2022-12-05T01:18:53;100413.00;;;3.50
11849;BMP180;5983;49.966;8.052;2022-12-05T01:21:21;100415.00;;;3.50
11849;BMP180;5983;49.966;8.052;2022-12-05T01:23:48;100422.00;;;3.50
11849;BMP180;5983;49.966;8.052;2022-12-05T01:26:18;100419.00;;;3.50
11849;BMP180;5983;49.966;8.052;2022-12-05T01:28:46;100424.00;;;3.50
11849;BMP180;5983;49.966;8.052;2022-12-05T01:31:27;100421.00;;;3.50
11849;BMP180;5983;49.966;8.052;2022-12-05T01:33:57;100422.00;;;3.50
11849;BMP180;5983;49.966;8.052;2022-12-05T01:36:26;100437.00;;;3.50
11849;BMP180;5983;49.966;8.052;2022-12-05T01:38:53;100431.00;;;3.50
11849;BMP180;5983;49.966;8.052;2022-12-05T01:41:24;100442.00;;;3.60
11849;BMP180;5983;49.966;8.052;2022-12-05T01:43:58;100445.00;;;3.50
11849;BMP180;5983;49.966;8.052;2022-12-05T01:46:31;100440.00;;;3.60
11849;BMP180;5983;49.966;8.052;2022-12-05T01:49:04;100442.00;;;3.50
11849;BMP180;5983;49.966;8.052;2022-12-05T01:51:35;100436.00;;;3.50
11849;BMP180;5983;49.966;8.052;2022-12-05T01:54:05;100445.00;;;3.50
11849;BMP180;5983;49.966;8.052;2022-12-05T01:56:34;100436.00;;;3.50
11849;BMP180;5983;49.966;8.052;2022-12-05T01:59:05;100445.00;;;3.50
11849;BMP180;5983;49.966;8.052;2022-12-05T02:01:35;100443.00;;;3.50
11849;BMP180;5983;49.966;8.052;2022-12-05T02:04:03;100443.00;;;3.50
11849;BMP180;5983;49.966;8.052;2022-12-05T02:06:31;100446.00;;;3.50
11849;BMP180;5983;49.966;8.052;2022-12-05T02:08:58;100449.00;;;3.50
11849;BMP180;5983;49.966;8.052;2022-12-05T02:11:29;100439.00;;;3.50
11849;BMP180;5983;49.966;8.052;2022-12-05T02:14:17;100452.00;;;3.50
11849;BMP180;5983;49.966;8.052;2022-12-05T02:16:57;100449.00;;;3.50
11849;BMP180;5983;49.966;8.052;2022-12-05T02:19:53;100436.00;;;3.40
11849;BMP180;5983;49.966;8.052;2022-12-05T02:26:32;100446.00;;;3.50
11849;BMP180;5983;49.966;8.052;2022-12-05T02:32:17;100449.00;;;3.50
11849;BMP180;5983;49.966;8.052;2022-12-05T02:34:57;100444.00;;;3.50
11849;BMP180;5983;49.966;8.052;2022-12-05T02:37:31;100440.00;;;3.50
11849;BMP180;5983;49.966;8.052;2022-12-05T02:40:04;100445.00;;;3.50
11849;BMP180;5983;49.966;8.052;2022-12-05T02:42:42;100452.00;;;3.50
11849;BMP180;5983;49.966;8.052;2022-12-05T02:45:15;100450.00;;;3.50
11849;BMP180;5983;49.966;8.052;2022-12-05T02:47:48;100449.00;;;3.50
11849;BMP180;5983;49.966;8.052;2022-12-05T02:50:20;100442.00;;;3.50
11849;BMP180;5983;49.966;8.052;2022-12-05T02:52:52;100442.00;;;3.50
11849;BMP180;5983;49.966;8.052;2022-12-05T02:55:21;100448.00;;;3.50
11849;BMP180;5983;49.966;8.052;2022-12-05T02:57:54;100445.00;;;3.50
11849;BMP180;5983;49.966;8.052;2022-12-05T03:00:23;100447.00;;;3.50
11849;BMP180;5983;49.966;8.052;2022-12-05T03:02:57;100446.00;;;3.50
11849;BMP180;5983;49.966;8.052;2022-12-05T03:05:36;100444.00;;;3.50
11849;BMP180;5983;49.966;8.052;2022-12-05T03:08:10;100445.00;;;3.50
11849;BMP180;5983;49.966;8.052;2022-12-05T03:10:42;100449.00;;;3.50
11849;BMP180;5983;49.966;8.052;2022-12-05T03:13:17;100440.00;;;3.50
11849;BMP180;5983;49.966;8.052;2022-12-05T03:15:49;100446.00;;;3.50
11849;BMP180;5983;49.966;8.052;2022-12-05T03:18:24;100446.00;;;3.50
11849;BMP180;5983;49.966;8.052;2022-12-05T03:20:59;100449.00;;;3.50
11849;BMP180;5983;49.966;8.052;2022-12-05T03:23:32;100450.00;;;3.50
11849;BMP180;5983;49.966;8.052;2022-12-05T03:26:06;100457.00;;;3.50
11849;BMP180;5983;49.966;8.052;2022-12-05T03:28:53;100467.00;;;3.50
11849;BMP180;5983;49.966;8.052;2022-12-05T03:31:36;100475.00;;;3.50
11849;BMP180;5983;49.966;8.052;2022-12-05T03:34:11;100470.00;;;3.60
11849;BMP180;5983;49.966;8.052;2022-12-05T03:36:44;100474.00;;;3.50
11849;BMP180;5983;49.966;8.052;2022-12-05T03:39:21;100483.00;;;3.50
11849;BMP180;5983;49.966;8.052;2022-12-05T03:41:56;100479.00;;;3.60
11849;BMP180;5983;49.966;8.052;2022-12-05T03:44:31;100485.00;;;3.50
11849;BMP180;5983;49.966;8.052;2022-12-05T03:47:03;100492.00;;;3.50
11849;BMP180;5983;49.966;8.052;2022-12-05T03:49:39;100483.00;;;3.60
11849;BMP180;5983;49.966;8.052;2022-12-05T03:52:11;100476.00;;;3.60
11849;BMP180;5983;49.966;8.052;2022-12-05T03:54:45;100482.00;;;3.60
11849;BMP180;5983;49.966;8.052;2022-12-05T03:57:21;100469.00;;;3.60
11849;BMP180;5983;49.966;8.052;2022-12-05T03:59:53;100468.00;;;3.60
11849;BMP180;5983;49.966;8.052;2022-12-05T04:02:27;100480.00;;;3.60
11849;BMP180;5983;49.966;8.052;2022-12-05T04:05:03;100482.00;;;3.60
11849;BMP180;5983;49.966;8.052;2022-12-05T04:07:36;100484.00;;;3.60
11849;BMP180;5983;49.966;8.052;2022-12-05T04:10:10;100491.00;;;3.60
11849;BMP180;5983;49.966;8.052;2022-12-05T04:12:40;100487.00;;;3.50
11849;BMP180;5983;49.966;8.052;2022-12-05T04:15:13;100476.00;;;3.50
11849;BMP180;5983;49.966;8.052;2022-12-05T04:17:49;100491.00;;;3.50
11849;BMP180;5983;49.966;8.052;2022-12-05T04:20:22;100494.00;;;3.50
11849;BMP180;5983;49.966;8.052;2022-12-05T04:23:09;100502.00;;;3.50
11849;BMP180;5983;49.966;8.052;2022-12-05T04:25:47;100497.00;;;3.50
11849;BMP180;5983;49.966;8.052;2022-12-05T04:28:26;100481.00;;;3.50
11849;BMP180;5983;49.966;8.052;2022-12-05T04:31:04;100477.00;;;3.50
11849;BMP180;5983;49.966;8.052;2022-12-05T04:33:41;100494.00;;;3.50
11849;BMP180;5983;49.966;8.052;2022-12-05T04:36:16;100503.00;;;3.60
11849;BMP180;5983;49.966;8.052;2022-12-05T04:38:50;100505.00;;;3.50
11849;BMP180;5983;49.966;8.052;2022-12-05T04:41:23;100517.00;;;3.50
11849;BMP180;5983;49.966;8.052;2022-12-05T04:43:55;100525.00;;;3.50
11849;BMP180;5983;49.966;8.052;2022-12-05T04:46:23;100532.00;;;3.50
11849;BMP180;5983;49.966;8.052;2022-12-05T04:48:55;100528.00;;;3.50
11849;BMP180;5983;49.966;8.052;2022-12-05T04:51:28;100527.00;;;3.50
11849;BMP180;5983;49.966;8.052;2022-12-05T04:54:05;100517.00;;;3.50
11849;BMP180;5983;49.966;8.052;2022-12-05T04:56:35;100518.00;;;3.40
11849;BMP180;5983;49.966;8.052;2022-12-05T04:59:04;100519.00;;;3.50
11849;BMP180;5983;49.966;8.052;2022-12-05T05:01:37;100523.00;;;3.40
11849;BMP180;5983;49.966;8.052;2022-12-05T05:04:10;100536.00;;;3.40
11849;BMP180;5983;49.966;8.052;2022-12-05T05:06:41;100524.00;;;3.50
11849;BMP180;5983;49.966;8.052;2022-12-05T05:09:09;100528.00;;;3.50
11849;BMP180;5983;49.966;8.052;2022-12-05T05:11:37;100532.00;;;3.50
11849;BMP180;5983;49.966;8.052;2022-12-05T05:14:04;100533.00;;;3.50
11849;BMP180;5983;49.966;8.052;2022-12-05T05:16:35;100530.00;;;3.50
11849;BMP180;5983;49.966;8.052;2022-12-05T05:19:03;100534.00;;;3.50
11849;BMP180;5983;49.966;8.052;2022-12-05T05:21:33;100531.00;;;3.50
11849;BMP180;5983;49.966;8.052;2022-12-05T05:24:03;100523.00;;;3.50
11849;BMP180;5983;49.966;8.052;2022-12-05T05:26:33;100528.00;;;3.60
11849;BMP180;5983;49.966;8.052;2022-12-05T05:29:00;100526.00;;;3.60
11849;BMP180;5983;49.966;8.052;2022-12-05T05:31:28;100526.00;;;3.60
11849;BMP180;5983;49.966;8.052;2022-12-05T05:33:56;100532.00;;;3.60
11849;BMP180;5983;49.966;8.052;2022-12-05T05:36:26;100529.00;;;3.60
11849;BMP180;5983;49.966;8.052;2022-12-05T05:38:55;100534.00;;;3.60
11849;BMP180;5983;49.966;8.052;2022-12-05T05:41:26;100528.00;;;3.60
11849;BMP180;5983;49.966;8.052;2022-12-05T05:43:55;100533.00;;;3.60
11849;BMP180;5983;49.966;8.052;2022-12-05T05:46:25;100535.00;;;3.60
11849;BMP180;5983;49.966;8.052;2022-12-05T05:48:53;100539.00;;;3.60
11849;BMP180;5983;49.966;8.052;2022-12-05T05:51:21;100542.00;;;3.60
11849;BMP180;5983;49.966;8.052;2022-12-05T05:53:50;100540.00;;;3.60
11849;BMP180;5983;49.966;8.052;2022-12-05T05:56:19;100535.00;;;3.60
11849;BMP180;5983;49.966;8.052;2022-12-05T05:58:55;100545.00;;;3.60
11849;BMP180;5983;49.966;8.052;2022-12-05T06:01:23;100542.00;;;3.60
11849;BMP180;5983;49.966;8.052;2022-12-05T06:03:50;100539.00;;;3.60
11849;BMP180;5983;49.966;8.052;2022-12-05T06:06:19;100550.00;;;3.60
11849;BMP180;5983;49.966;8.052;2022-12-05T06:08:47;100546.00;;;3.60
11849;BMP180;5983;49.966;8.052;2022-12-05T06:11:17;100538.00;;;3.70
11849;BMP180;5983;49.966;8.052;2022-12-05T06:13:45;100546.00;;;3.70
11849;BMP180;5983;49.966;8.052;2022-12-05T06:16:16;100541.00;;;3.70
11849;BMP180;5983;49.966;8.052;2022-12-05T06:18:44;100542.00;;;3.70
11849;BMP180;5983;49.966;8.052;2022-12-05T06:21:11;100543.00;;;3.70
11849;BMP180;5983;49.966;8.052;2022-12-05T06:23:38;100541.00;;;3.70
11849;BMP180;5983;49.966;8.052;2022-12-05T06:26:10;100549.00;;;3.70
11849;BMP180;5983;49.966;8.052;2022-12-05T06:28:37;100547.00;;;3.70
11849;BMP180;5983;49.966;8.052;2022-12-05T06:31:10;100548.00;;;3.70
11849;BMP180;5983;49.966;8.052;2022-12-05T06:33:39;100560.00;;;3.70
11849;BMP180;5983;49.966;8.052;2022-12-05T06:36:09;100559.00;;;3.70
11849;BMP180;5983;49.966;8.052;2022-12-05T06:38:36;100564.00;;;3.70
11849;BMP180;5983;49.966;8.052;2022-12-05T06:41:05;100559.00;;;3.70
11849;BMP180;5983;49.966;8.052;2022-12-05T06:43:32;100552.00;;;3.70
11849;BMP180;5983;49.966;8.052;2022-12-05T06:46:03;100553.00;;;3.70
11849;BMP180;5983;49.966;8.052;2022-12-05T06:48:30;100566.00;;;3.70
11849;BMP180;5983;49.966;8.052;2022-12-05T06:51:01;100568.00;;;3.70
11849;BMP180;5983;49.966;8.052;2022-12-05T06:53:29;100572.00;;;3.70
11849;BMP180;5983;49.966;8.052;2022-12-05T06:55:57;100575.00;;;3.70
11849;BMP180;5983;49.966;8.052;2022-12-05T06:58:25;100572.00;;;3.70
11849;BMP180;5983;49.966;8.052;2022-12-05T07:00:52;100571.00;;;3.70
11849;BMP180;5983;49.966;8.052;2022-12-05T07:03:37;100579.00;;;3.70
11849;BMP180;5983;49.966;8.052;2022-12-05T07:06:07;100579.00;;;3.70
11849;BMP180;5983;49.966;8.052;2022-12-05T07:08:34;100593.00;;;3.70
11849;BMP180;5983;49.966;8.052;2022-12-05T07:11:01;100595.00;;;3.70
11849;BMP180;5983;49.966;8.052;2022-12-05T07:13:29;100586.00;;;3.70
11849;BMP180;5983;49.966;8.052;2022-12-05T07:15:56;100587.00;;;3.70
11849;BMP180;5983;49.966;8.052;2022-12-05T07:18:24;100598.00;;;3.70
11849;BMP180;5983;49.966;8.052;2022-12-05T07:20:56;100594.00;;;3.70
11849;BMP180;5983;49.966;8.052;2022-12-05T07:23:25;100593.00;;;3.70
11849;BMP180;5983;49.966;8.052;2022-12-05T07:25:52;100599.00;;;3.70
11849;BMP180;5983;49.966;8.052;2022-12-05T07:28:20;100599.00;;;3.70
11849;BMP180;5983;49.966;8.052;2022-12-05T07:30:46;100601.00;;;3.80
11849;BMP180;5983;49.966;8.052;2022-12-05T07:33:14;100598.00;;;3.70
11849;BMP180;5983;49.966;8.052;2022-12-05T07:35:40;100608.00;;;3.70
11849;BMP180;5983;49.966;8.052;2022-12-05T07:38:08;100611.00;;;3.80
11849;BMP180;5983;49.966;8.052;2022-12-05T07:40:36;100609.00;;;3.80
11849;BMP180;5983;49.966;8.052;2022-12-05T07:43:03;100623.00;;;3.80
11849;BMP180;5983;49.966;8.052;2022-12-05T07:45:32;100606.00;;;3.80
11849;BMP180;5983;49.966;8.052;2022-12-05T07:47:59;100617.00;;;3.80
11849;BMP180;5983;49.966;8.052;2022-12-05T07:50:26;100619.00;;;3.80
11849;BMP180;5983;49.966;8.052;2022-12-05T07:52:53;100616.00;;;3.90
11849;BMP180;5983;49.966;8.052;2022-12-05T07:55:20;100629.00;;;3.90
11849;BMP180;5983;49.966;8.052;2022-12-05T07:57:48;100641.00;;;3.90
11849;BMP180;5983;49.966;8.052;2022-12-05T08:00:17;100634.00;;;3.90
11849;BMP180;5983;49.966;8.052;2022-12-05T08:02:44;100629.00;;;3.90
11849;BMP180;5983;49.966;8.052;2022-12-05T08:05:11;100647.00;;;4.00
11849;BMP180;5983;49.966;8.052;2022-12-05T08:07:38;100650.00;;;4.00
11849;BMP180;5983;49.966;8.052;2022-12-05T08:10:07;100653.00;;;4.00
11849;BMP180;5983;49.966;8.052;2022-12-05T08:12:34;100655.00;;;4.00
11849;BMP180;5983;49.966;8.052;2022-12-05T08:15:05;100666.00;;;4.00
11849;BMP180;5983;49.966;8.052;2022-12-05T08:17:32;100666.00;;;4.00
11849;BMP180;5983;49.966;8.052;2022-12-05T08:19:59;100663.00;;;3.90
11849;BMP180;5983;49.966;8.052;2022-12-05T08:22:27;100665.00;;;3.90
11849;BMP180;5983;49.966;8.052;2022-12-05T08:24:54;100669.00;;;3.90
11849;BMP180;5983;49.966;8.052;2022-12-05T08:27:21;100661.00;;;3.90
11849;BMP180;5983;49.966;8.052;2022-12-05T08:29:48;100661.00;;;3.90
11849;BMP180;5983;49.966;8.052;2022-12-05T08:32:16;100672.00;;;3.90
11849;BMP180;5983;49.966;8.052;2022-12-05T08:34:43;100674.00;;;3.90
11849;BMP180;5983;49.966;8.052;2022-12-05T08:37:10;100677.00;;;3.90
11849;BMP180;5983;49.966;8.052;2022-12-05T08:39:37;100669.00;;;3.90
11849;BMP180;5983;49.966;8.052;2022-12-05T08:42:04;100678.00;;;3.90
11849;BMP180;5983;49.966;8.052;2022-12-05T08:44:31;100680.00;;;3.90
11849;BMP180;5983;49.966;8.052;2022-12-05T08:46:58;100679.00;;;4.00
11849;BMP180;5983;49.966;8.052;2022-12-05T08:49:27;100684.00;;;4.00
11849;BMP180;5983;49.966;8.052;2022-12-05T08:51:53;100686.00;;;4.10
11849;BMP180;5983;49.966;8.052;2022-12-05T08:54:20;100691.00;;;4.10
11849;BMP180;5983;49.966;8.052;2022-12-05T08:56:50;100689.00;;;4.20
11849;BMP180;5983;49.966;8.052;2022-12-05T08:59:17;100694.00;;;4.20
11849;BMP180;5983;49.966;8.052;2022-12-05T09:01:44;100692.00;;;4.30
11849;BMP180;5983;49.966;8.052;2022-12-05T09:04:11;100699.00;;;4.30
11849;BMP180;5983;49.966;8.052;2022-12-05T09:06:40;100698.00;;;4.40
11849;BMP180;5983;49.966;8.052;2022-12-05T09:09:09;100702.00;;;4.50
11849;BMP180;5983;49.966;8.052;2022-12-05T09:11:40;100702.00;;;4.50
11849;BMP180;5983;49.966;8.052;2022-12-05T09:14:12;100698.00;;;4.50
11849;BMP180;5983;49.966;8.052;2022-12-05T09:16:39;100700.00;;;4.50
11849;BMP180;5983;49.966;8.052;2022-12-05T09:19:12;100700.00;;;4.50
11849;BMP180;5983;49.966;8.052;2022-12-05T09:21:42;100699.00;;;4.50
11849;BMP180;5983;49.966;8.052;2022-12-05T09:24:10;100699.00;;;4.60
11849;BMP180;5983;49.966;8.052;2022-12-05T09:26:37;100700.00;;;4.60
11849;BMP180;5983;49.966;8.052;2022-12-05T09:29:04;100711.00;;;4.60
11849;BMP180;5983;49.966;8.052;2022-12-05T09:31:31;100718.00;;;4.70
11849;BMP180;5983;49.966;8.052;2022-12-05T09:34:00;100711.00;;;4.60
11849;BMP180;5983;49.966;8.052;2022-12-05T09:36:29;100728.00;;;4.60
11849;BMP180;5983;49.966;8.052;2022-12-05T09:39:03;100726.00;;;4.60
11849;BMP180;5983;49.966;8.052;2022-12-05T09:42:02;100723.00;;;4.60
11849;BMP180;5983;49.966;8.052;2022-12-05T09:44:45;100721.00;;;4.70
11849;BMP180;5983;49.966;8.052;2022-12-05T09:47:40;100726.00;;;4.70
11849;BMP180;5983;49.966;8.052;2022-12-05T09:50:18;100731.00;;;4.80
11849;BMP180;5983;49.966;8.052;2022-12-05T09:53:03;100722.00;;;4.70
11849;BMP180;5983;49.966;8.052;2022-12-05T09:55:40;100722.00;;;4.70
11849;BMP180;5983;49.966;8.052;2022-12-05T09:58:21;100727.00;;;4.70
11849;BMP180;5983;49.966;8.052;2022-12-05T10:00:58;100721.00;;;4.70
11849;BMP180;5983;49.966;8.052;2022-12-05T10:03:36;100715.00;;;4.70
11849;BMP180;5983;49.966;8.052;2022-12-05T10:06:17;100708.00;;;4.70
11849;BMP180;5983;49.966;8.052;2022-12-05T10:09:07;100709.00;;;4.80
11849;BMP180;5983;49.966;8.052;2022-12-05T10:11:49;100700.00;;;4.80
11849;BMP180;5983;49.966;8.052;2022-12-05T10:14:30;100702.00;;;4.80
11849;BMP180;5983;49.966;8.052;2022-12-05T10:17:13;100707.00;;;4.90
11849;BMP180;5983;49.966;8.052;2022-12-05T10:19:44;100700.00;;;4.90
11849;BMP180;5983;49.966;8.052;2022-12-05T10:22:17;100710.00;;;5.00
11849;BMP180;5983;49.966;8.052;2022-12-05T10:24:48;100705.00;;;4.90
11849;BMP180;5983;49.966;8.052;2022-12-05T10:27:26;100702.00;;;5.00
11849;BMP180;5983;49.966;8.052;2022-12-05T10:30:02;100712.00;;;5.00
11849;BMP180;5983;49.966;8.052;2022-12-05T10:32:35;100716.00;;;5.00
11849;BMP180;5983;49.966;8.052;2022-12-05T10:35:15;100714.00;;;5.10
11849;BMP180;5983;49.966;8.052;2022-12-05T10:37:47;100710.00;;;5.10
11849;BMP180;5983;49.966;8.052;2022-12-05T10:40:15;100712.00;;;5.10
11849;BMP180;5983;49.966;8.052;2022-12-05T10:42:45;100711.00;;;5.10
11849;BMP180;5983;49.966;8.052;2022-12-05T10:45:17;100702.00;;;5.20
11849;BMP180;5983;49.966;8.052;2022-12-05T10:47:46;100710.00;;;5.20
11849;BMP180;5983;49.966;8.052;2022-12-05T10:50:23;100708.00;;;5.20
11849;BMP180;5983;49.966;8.052;2022-12-05T10:52:52;100709.00;;;5.20
11849;BMP180;5983;49.966;8.052;2022-12-05T10:55:20;100696.00;;;5.20
11849;BMP180;5983;49.966;8.052;2022-12-05T10:57:53;100699.00;;;5.20
11849;BMP180;5983;49.966;8.052;2022-12-05T11:00:33;100695.00;;;5.20
11849;BMP180;5983;49.966;8.052;2022-12-05T11:03:03;100699.00;;;5.20
11849;BMP180;5983;49.966;8.052;2022-12-05T11:05:33;100688.00;;;5.30
11849;BMP180;5983;49.966;8.052;2022-12-05T11:08:01;100688.00;;;5.50
11849;BMP180;5983;49.966;8.052;2022-12-05T11:10:34;100685.00;;;5.60
11849;BMP180;5983;49.966;8.052;2022-12-05T11:13:15;100688.00;;;5.70
11849;BMP180;5983;49.966;8.052;2022-12-05T11:15:45;100700.00;;;5.70
11849;BMP180;5983;49.966;8.052;2022-12-05T11:18:30;100691.00;;;5.70
11849;BMP180;5983;49.966;8.052;2022-12-05T11:21:10;100696.00;;;5.70
11849;BMP180;5983;49.966;8.052;2022-12-05T11:23:37;100694.00;;;5.70
11849;BMP180;5983;49.966;8.052;2022-12-05T11:26:17;100702.00;;;5.80
11849;BMP180;5983;49.966;8.052;2022-12-05T11:28:46;100690.00;;;5.80
11849;BMP180;5983;49.966;8.052;2022-12-05T11:31:27;100705.00;;;5.70
11849;BMP180;5983;49.966;8.052;2022-12-05T11:34:10;100694.00;;;5.70
11849;BMP180;5983;49.966;8.052;2022-12-05T11:36:43;100700.00;;;5.70
11849;BMP180;5983;49.966;8.052;2022-12-05T11:39:12;100699.00;;;5.70
11849;BMP180;5983;49.966;8.052;2022-12-05T11:45:02;100701.00;;;5.70
11849;BMP180;5983;49.966;8.052;2022-12-05T11:48:11;100696.00;;;5.70
11849;BMP180;5983;49.966;8.052;2022-12-05T11:50:51;100699.00;;;5.70
11849;BMP180;5983;49.966;8.052;2022-12-05T11:53:58;100688.00;;;5.60
11849;BMP180;5983;49.966;8.052;2022-12-05T11:56:37;100693.00;;;5.70
11849;BMP180;5983;49.966;8.052;2022-12-05T11:59:39;100688.00;;;5.60
11849;BMP180;5983;49.966;8.052;2022-12-05T12:02:30;100696.00;;;5.60
11849;BMP180;5983;49.966;8.052;2022-12-05T12:05:11;100691.00;;;5.60
11849;BMP180;5983;49.966;8.052;2022-12-05T12:07:58;100681.00;;;5.60
11849;BMP180;5983;49.966;8.052;2022-12-05T12:10:39;100685.00;;;5.60
11849;BMP180;5983;49.966;8.052;2022-12-05T12:13:28;100687.00;;;5.60
11849;BMP180;5983;49.966;8.052;2022-12-05T12:16:08;100692.00;;;5.60
11849;BMP180;5983;49.966;8.052;2022-12-05T12:19:06;100687.00;;;5.60
11849;BMP180;5983;49.966;8.052;2022-12-05T12:21:55;100699.00;;;5.60
11849;BMP180;5983;49.966;8.052;2022-12-05T12:24:36;100690.00;;;5.60
11849;BMP180;5983;49.966;8.052;2022-12-05T12:27:15;100690.00;;;5.60
11849;BMP180;5983;49.966;8.052;2022-12-05T12:30:02;100693.00;;;5.60
11849;BMP180;5983;49.966;8.052;2022-12-05T12:32:39;100681.00;;;5.70
11849;BMP180;5983;49.966;8.052;2022-12-05T12:35:28;100688.00;;;5.70
11849;BMP180;5983;49.966;8.052;2022-12-05T12:38:19;100690.00;;;5.70
11849;BMP180;5983;49.966;8.052;2022-12-05T12:40:53;100687.00;;;5.60
11849;BMP180;5983;49.966;8.052;2022-12-05T12:43:42;100679.00;;;5.70
11849;BMP180;5983;49.966;8.052;2022-12-05T12:46:21;100677.00;;;5.70
11849;BMP180;5983;49.966;8.052;2022-12-05T12:49:14;100680.00;;;5.60
11849;BMP180;5983;49.966;8.052;2022-12-05T12:51:51;100684.00;;;5.60
11849;BMP180;5983;49.966;8.052;2022-12-05T12:54:53;100678.00;;;5.60
11849;BMP180;5983;49.966;8.052;2022-12-05T12:57:33;100676.00;;;5.60
11849;BMP180;5983;49.966;8.052;2022-12-05T13:00:21;100681.00;;;5.60
11849;BMP180;5983;49.966;8.052;2022-12-05T13:02:53;100680.00;;;5.70
11849;BMP180;5983;49.966;8.052;2022-12-05T13:05:31;100684.00;;;5.60
11849;BMP180;5983;49.966;8.052;2022-12-05T13:08:06;100685.00;;;5.70
11849;BMP180;5983;49.966;8.052;2022-12-05T13:10:42;100689.00;;;5.70
11849;BMP180;5983;49.966;8.052;2022-12-05T13:13:15;100678.00;;;5.70
11849;BMP180;5983;49.966;8.052;2022-12-05T13:15:47;100688.00;;;5.70
11849;BMP180;5983;49.966;8.052;2022-12-05T13:18:19;100687.00;;;5.60
11849;BMP180;5983;49.966;8.052;2022-12-05T13:20:50;100694.00;;;5.60
11849;BMP180;5983;49.966;8.052;2022-12-05T13:23:23;100688.00;;;5.50
11849;BMP180;5983;49.966;8.052;2022-12-05T13:25:53;100685.00;;;5.50
11849;BMP180;5983;49.966;8.052;2022-12-05T13:28:28;100681.00;;;5.50
11849;BMP180;5983;49.966;8.052;2022-12-05T13:30:57;100673.00;;;5.60
11849;BMP180;5983;49.966;8.052;2022-12-05T13:33:33;100675.00;;;5.60
11849;BMP180;5983;49.966;8.052;2022-12-05T13:36:08;100669.00;;;5.60
11849;BMP180;5983;49.966;8.052;2022-12-05T13:39:01;100684.00;;;5.60
11849;BMP180;5983;49.966;8.052;2022-12-05T13:41:49;100690.00;;;5.60
11849;BMP180;5983;49.966;8.052;2022-12-05T13:44:39;100676.00;;;5.60
11849;BMP180;5983;49.966;8.052;2022-12-05T13:47:21;100682.00;;;5.70
11849;BMP180;5983;49.966;8.052;2022-12-05T13:49:56;100684.00;;;5.70
11849;BMP180;5983;49.966;8.052;2022-12-05T13:52:31;100674.00;;;5.70
11849;BMP180;5983;49.966;8.052;2022-12-05T13:55:10;100690.00;;;5.70
11849;BMP180;5983;49.966;8.052;2022-12-05T13:57:51;100694.00;;;5.70
11849;BMP180;5983;49.966;8.052;2022-12-05T14:00:28;100692.00;;;5.60
11849;BMP180;5983;49.966;8.052;2022-12-05T14:02:59;100700.00;;;5.60
11849;BMP180;5983;49.966;8.052;2022-12-05T14:05:52;100688.00;;;5.60
11849;BMP180;5983;49.966;8.052;2022-12-05T14:08:52;100700.00;;;5.60
11849;BMP180;5983;49.966;8.052;2022-12-05T14:11:21;100705.00;;;5.60
11849;BMP180;5983;49.966;8.052;2022-12-05T14:13:48;100701.00;;;5.60
11849;BMP180;5983;49.966;8.052;2022-12-05T14:16:47;100703.00;;;5.60
11849;BMP180;5983;49.966;8.052;2022-12-05T14:20:03;100708.00;;;5.70
11849;BMP180;5983;49.966;8.052;2022-12-05T14:23:08;100707.00;;;5.60
11849;BMP180;5983;49.966;8.052;2022-12-05T14:25:55;100708.00;;;5.60
11849;BMP180;5983;49.966;8.052;2022-12-05T14:28:43;100714.00;;;5.70
11849;BMP180;5983;49.966;8.052;2022-12-05T14:31:36;100706.00;;;5.60
11849;BMP180;5983;49.966;8.052;2022-12-05T14:34:17;100717.00;;;5.60
11849;BMP180;5983;49.966;8.052;2022-12-05T14:36:57;100718.00;;;5.60
11849;BMP180;5983;49.966;8.052;2022-12-05T14:39:41;100707.00;;;5.60
11849;BMP180;5983;49.966;8.052;2022-12-05T14:42:33;100717.00;;;5.60
11849;BMP180;5983;49.966;8.052;2022-12-05T14:45:25;100712.00;;;5.60
11849;BMP180;5983;49.966;8.052;2022-12-05T14:47:56;100711.00;;;5.60
11849;BMP180;5983;49.966;8.052;2022-12-05T14:50:38;100708.00;;;5.60
11849;BMP180;5983;49.966;8.052;2022-12-05T14:53:30;100707.00;;;5.60
11849;BMP180;5983;49.966;8.052;2022-12-05T14:56:20;100709.00;;;5.60
11849;BMP180;5983;49.966;8.052;2022-12-05T14:58:55;100712.00;;;5.60
11849;BMP180;5983;49.966;8.052;2022-12-05T15:01:27;100709.00;;;5.60
11849;BMP180;5983;49.966;8.052;2022-12-05T15:04:13;100706.00;;;5.50
11849;BMP180;5983;49.966;8.052;2022-12-05T15:06:47;100718.00;;;5.50
11849;BMP180;5983;49.966;8.052;2022-12-05T15:09:40;100706.00;;;5.50
11849;BMP180;5983;49.966;8.052;2022-12-05T15:12:15;100716.00;;;5.50